Dubois, Indiana
Current Conditions -  °F | °C
As of 9:15 PM on Saturday 20 Dec 2014 (Local Time) from KHNB Reporting Station
Clear Clear  
Wind Chill: 27°   Ceiling: Unl
Heat Index: 27°   Visibility: 5mi
Dew Point: 21°   Wind: 3mph
Humidity: 80%   Direction: 50°NE
Pressure: 30.3"   Gusts: NA
Location:  38.45°N, 86.8°W
Report Text: KHNB 210315Z AUTO 05003KT 5SM CLR M03/M06 A3030 RMK AO1
Loading
Personal Weather Stations






























Interactive Weather Map New forecast layout! Learn more

10-Day Weather Forecast

Advertisements
Track Severe Weather on mobile